Time,TemperatureF,DewpointF,PressureIn,WindDirection,WindDirectionDegrees,WindSpeedMPH,WindSpeedGustMPH,Humidity,HourlyPrecipIn,Conditions,Clouds,dailyrainin,SoftwareType,DateUTC
2013-02-27 00:00:00,65.5,59.9,29.78,West,278,0.0,1.0,82,0.00,,,0.29,Wunderground v.1.15,2013-02-27 05:00:00,
2013-02-27 00:05:00,65.5,59.9,29.78,SW,223,0.0,6.0,82,0.00,,,0.00,Wunderground v.1.15,2013-02-27 05:05:00,
2013-02-27 00:10:00,65.6,60.0,29.78,SW,223,7.0,7.0,82,0.00,,,0.00,Wunderground v.1.15,2013-02-27 05:10:00,
2013-02-27 00:15:00,65.8,60.2,29.78,WSW,254,0.0,8.0,82,0.00,,,0.00,Wunderground v.1.15,2013-02-27 05:15:00,
2013-02-27 00:20:00,65.8,60.2,29.78,West,278,2.0,2.0,82,0.00,,,0.00,Wunderground v.1.15,2013-02-27 05:20:00,
2013-02-27 00:25:00,66.0,60.3,29.78,West,278,0.0,3.0,82,0.00,,,0.00,Wunderground v.1.15,2013-02-27 05:25:00,
2013-02-27 00:30:00,66.0,60.3,29.78,West,271,1.0,1.0,82,0.00,,,0.00,Wunderground v.1.15,2013-02-27 05:30:00,
2013-02-27 00:35:00,66.0,60.7,29.78,NW,318,0.0,4.0,83,0.00,,,0.00,Wunderground v.1.15,2013-02-27 05:35:00,
2013-02-27 00:40:00,66.0,60.7,29.78,WSW,243,0.0,3.0,83,0.00,,,0.00,Wunderground v.1.15,2013-02-27 05:40:00,
2013-02-27 00:45:00,66.0,60.7,29.78,WNW,298,0.0,4.0,83,0.00,,,0.00,Wunderground v.1.15,2013-02-27 05:45:00,
2013-02-27 00:50:00,66.0,60.7,29.78,WSW,257,0.0,0.0,83,0.00,,,0.00,Wunderground v.1.15,2013-02-27 05:50:00,
2013-02-27 00:55:00,66.0,60.7,29.78,SSW,205,0.0,5.0,83,0.00,,,0.00,Wunderground v.1.15,2013-02-27 05:55:00,
2013-02-27 01:00:00,66.0,60.7,29.78,West,270,0.0,0.0,83,0.00,,,0.00,Wunderground v.1.15,2013-02-27 06:00:00,
2013-02-27 01:05:00,65.8,60.5,29.78,WSW,254,3.0,5.0,83,0.00,,,0.00,Wunderground v.1.15,2013-02-27 06:05:00,
2013-02-27 01:10:00,65.8,60.5,29.78,West,270,0.0,1.0,83,0.00,,,0.00,Wunderground v.1.15,2013-02-27 06:10:00,
2013-02-27 01:15:00,65.6,60.3,29.78,NW,312,0.0,5.0,83,0.00,,,0.00,Wunderground v.1.15,2013-02-27 06:15:00,
2013-02-27 01:20:00,65.6,60.3,29.79,NW,318,0.0,1.0,83,0.00,,,0.00,Wunderground v.1.15,2013-02-27 06:20:00,
2013-02-27 01:25:00,65.6,60.3,29.79,SSW,202,0.0,3.0,83,0.00,,,0.00,Wunderground v.1.15,2013-02-27 06:25:00,
2013-02-27 01:30:00,65.6,60.3,29.79,West,260,0.0,0.0,83,0.00,,,0.00,Wunderground v.1.15,2013-02-27 06:30:00,
2013-02-27 01:35:00,65.5,60.2,29.78,WNW,289,0.0,3.0,83,0.00,,,0.00,Wunderground v.1.15,2013-02-27 06:35:00,
2013-02-27 01:40:00,65.5,60.2,29.78,WNW,301,0.0,0.0,83,0.00,,,0.00,Wunderground v.1.15,2013-02-27 06:40:00,
2013-02-27 01:45:00,65.5,60.2,29.78,West,270,0.0,1.0,83,0.00,,,0.00,Wunderground v.1.15,2013-02-27 06:45:00,
2013-02-27 01:50:00,65.3,60.0,29.78,WSW,240,0.0,3.0,83,0.00,,,0.00,Wunderground v.1.15,2013-02-27 06:50:00,
2013-02-27 01:55:00,65.3,60.0,29.78,WNW,284,2.0,3.0,83,0.00,,,0.00,Wunderground v.1.15,2013-02-27 06:55:00,
2013-02-27 02:00:00,65.3,60.0,29.78,SW,219,0.0,3.0,83,0.00,,,0.00,Wunderground v.1.15,2013-02-27 07:00:00,
2013-02-27 02:05:00,65.3,60.0,29.78,West,275,4.0,6.0,83,0.00,,,0.00,Wunderground v.1.15,2013-02-27 07:05:00,
2013-02-27 02:10:00,65.3,60.0,29.78,WNW,302,0.0,1.0,83,0.00,,,0.00,Wunderground v.1.15,2013-02-27 07:10:00,
2013-02-27 02:15:00,65.2,59.6,29.78,WSW,256,0.0,6.0,82,0.00,,,0.00,Wunderground v.1.15,2013-02-27 07:15:00,
2013-02-27 02:20:00,65.2,59.6,29.78,ESE,114,0.0,1.0,82,0.00,,,0.00,Wunderground v.1.15,2013-02-27 07:20:00,
2013-02-27 02:25:00,65.2,59.6,29.78,WNW,294,0.0,1.0,82,0.00,,,0.00,Wunderground v.1.15,2013-02-27 07:25:00,
2013-02-27 02:30:00,65.2,59.6,29.77,WNW,292,0.0,0.0,82,0.00,,,0.00,Wunderground v.1.15,2013-02-27 07:30:00,
2013-02-27 02:35:00,65.2,59.6,29.77,NW,308,0.0,3.0,82,0.00,,,0.00,Wunderground v.1.15,2013-02-27 07:35:00,
2013-02-27 02:40:00,65.2,59.6,29.77,WNW,287,0.0,1.0,82,0.00,,,0.00,Wunderground v.1.15,2013-02-27 07:40:00,
2013-02-27 02:45:00,65.2,59.6,29.77,WNW,288,0.0,1.0,82,0.00,,,0.00,Wunderground v.1.15,2013-02-27 07:45:00,
2013-02-27 02:50:00,65.2,59.2,29.77,West,272,5.0,7.0,81,0.00,,,0.00,Wunderground v.1.15,2013-02-27 07:50:00,
2013-02-27 02:55:00,65.2,59.2,29.77,WNW,289,0.0,7.0,81,0.00,,,0.00,Wunderground v.1.15,2013-02-27 07:55:00,
2013-02-27 03:00:00,65.2,59.2,29.77,WSW,243,0.0,1.0,81,0.00,,,0.00,Wunderground v.1.15,2013-02-27 08:00:00,
2013-02-27 03:05:00,65.0,59.0,29.77,West,280,10.0,10.0,81,0.00,,,0.00,Wunderground v.1.15,2013-02-27 08:05:00,
2013-02-27 03:10:00,65.0,59.0,29.77,West,271,5.0,6.0,81,0.00,,,0.00,Wunderground v.1.15,2013-02-27 08:10:00,
2013-02-27 03:15:00,65.0,59.0,29.77,West,275,0.0,7.0,81,0.00,,,0.00,Wunderground v.1.15,2013-02-27 08:15:00,
2013-02-27 03:20:00,65.0,58.7,29.77,WNW,282,0.0,1.0,80,0.00,,,0.00,Wunderground v.1.15,2013-02-27 08:20:00,
2013-02-27 03:25:00,65.0,58.7,29.77,WNW,298,2.0,7.0,80,0.00,,,0.00,Wunderground v.1.15,2013-02-27 08:25:00,
2013-02-27 03:30:00,65.0,59.0,29.78,NW,304,0.0,1.0,81,0.00,,,0.00,Wunderground v.1.15,2013-02-27 08:30:00,
2013-02-27 03:35:00,65.0,59.0,29.78,NW,309,0.0,4.0,81,0.00,,,0.00,Wunderground v.1.15,2013-02-27 08:35:00,
2013-02-27 03:40:00,65.0,59.0,29.78,WNW,284,0.0,1.0,81,0.00,,,0.00,Wunderground v.1.15,2013-02-27 08:40:00,
2013-02-27 03:45:00,64.8,58.8,29.78,NNW,333,0.0,4.0,81,0.00,,,0.00,Wunderground v.1.15,2013-02-27 08:45:00,
2013-02-27 03:50:00,64.8,58.8,29.78,West,280,0.0,0.0,81,0.00,,,0.00,Wunderground v.1.15,2013-02-27 08:50:00,
2013-02-27 03:55:00,64.8,58.8,29.78,West,265,0.0,0.0,81,0.00,,,0.00,Wunderground v.1.15,2013-02-27 08:55:00,
2013-02-27 04:00:00,64.7,59.1,29.78,WNW,302,0.0,0.0,82,0.00,,,0.00,Wunderground v.1.15,2013-02-27 09:00:00,
2013-02-27 04:05:00,64.7,58.7,29.78,WSW,257,0.0,5.0,81,0.00,,,0.00,Wunderground v.1.15,2013-02-27 09:05:00,
2013-02-27 04:10:00,64.7,58.7,29.78,NW,312,1.0,2.0,81,0.00,,,0.00,Wunderground v.1.15,2013-02-27 09:10:00,
2013-02-27 04:15:00,64.5,58.5,29.78,NNW,339,0.0,5.0,81,0.00,,,0.00,Wunderground v.1.15,2013-02-27 09:15:00,
2013-02-27 04:20:00,64.5,58.5,29.78,NW,305,0.0,0.0,81,0.00,,,0.00,Wunderground v.1.15,2013-02-27 09:20:00,
2013-02-27 04:26:00,64.3,58.3,29.78,WNW,295,2.0,3.0,81,0.00,,,0.00,Wunderground v.1.15,2013-02-27 09:26:00,
2013-02-27 04:31:00,64.3,58.3,29.78,WNW,291,0.0,4.0,81,0.00,,,0.00,Wunderground v.1.15,2013-02-27 09:31:00,
2013-02-27 04:35:00,64.3,58.3,29.78,West,280,1.0,7.0,81,0.00,,,0.00,Wunderground v.1.15,2013-02-27 09:35:00,
2013-02-27 04:40:00,64.2,58.2,29.78,NW,318,0.0,2.0,81,0.00,,,0.00,Wunderground v.1.15,2013-02-27 09:40:00,
2013-02-27 04:46:00,64.2,58.2,29.78,NNW,330,0.0,5.0,81,0.00,,,0.00,Wunderground v.1.15,2013-02-27 09:46:00,
2013-02-27 04:51:00,64.0,57.7,29.78,NW,319,0.0,5.0,80,0.00,,,0.00,Wunderground v.1.15,2013-02-27 09:51:00,
2013-02-27 04:56:00,64.0,57.7,29.78,North,359,0.0,8.0,80,0.00,,,0.00,Wunderground v.1.15,2013-02-27 09:56:00,
2013-02-27 05:01:00,64.0,57.7,29.79,NE,54,6.0,10.0,80,0.00,,,0.00,Wunderground v.1.15,2013-02-27 10:01:00,
2013-02-27 05:05:00,63.9,57.6,29.79,NW,308,0.0,10.0,80,0.00,,,0.00,Wunderground v.1.15,2013-02-27 10:05:00,
2013-02-27 05:10:00,63.9,57.6,29.79,West,272,3.0,3.0,80,0.00,,,0.00,Wunderground v.1.15,2013-02-27 10:10:00,
2013-02-27 05:16:00,63.9,57.6,29.79,NNW,335,0.0,7.0,80,0.00,,,0.00,Wunderground v.1.15,2013-02-27 10:16:00,
2013-02-27 05:21:00,63.7,57.4,29.79,West,272,0.0,1.0,80,0.00,,,0.00,Wunderground v.1.15,2013-02-27 10:21:00,
2013-02-27 05:26:00,63.7,57.4,29.79,North,11,0.0,5.0,80,0.00,,,0.00,Wunderground v.1.15,2013-02-27 10:26:00,
2013-02-27 05:31:00,63.5,57.2,29.79,NW,306,0.0,2.0,80,0.00,,,0.00,Wunderground v.1.15,2013-02-27 10:31:00,
2013-02-27 05:36:00,63.4,57.1,29.79,NW,311,0.0,11.0,80,0.00,,,0.00,Wunderground v.1.15,2013-02-27 10:36:00,
2013-02-27 05:41:00,63.2,56.9,29.79,NNW,337,0.0,1.0,80,0.00,,,0.00,Wunderground v.1.15,2013-02-27 10:41:00,
2013-02-27 05:46:00,63.1,56.8,29.79,North,350,0.0,3.0,80,0.00,,,0.00,Wunderground v.1.15,2013-02-27 10:46:00,
2013-02-27 05:51:00,62.9,56.6,29.79,NW,316,0.0,0.0,80,0.00,,,0.00,Wunderground v.1.15,2013-02-27 10:51:00,
2013-02-27 05:56:00,62.9,56.6,29.79,WNW,287,0.0,4.0,80,0.00,,,0.00,Wunderground v.1.15,2013-02-27 10:56:00,
2013-02-27 06:01:00,62.7,56.4,29.80,West,278,0.0,1.0,80,0.00,,,0.00,Wunderground v.1.15,2013-02-27 11:01:00,
2013-02-27 06:06:00,62.6,56.3,29.80,NW,316,0.0,2.0,80,0.00,,,0.00,Wunderground v.1.15,2013-02-27 11:06:00,
2013-02-27 06:11:00,62.6,56.3,29.80,WNW,288,0.0,0.0,80,0.00,,,0.00,Wunderground v.1.15,2013-02-27 11:11:00,
2013-02-27 06:16:00,62.4,56.1,29.80,WNW,288,0.0,0.0,80,0.00,,,0.00,Wunderground v.1.15,2013-02-27 11:16:00,
2013-02-27 06:21:00,62.4,56.1,29.80,WNW,288,0.0,0.0,80,0.00,,,0.00,Wunderground v.1.15,2013-02-27 11:21:00,
2013-02-27 06:26:00,62.3,56.0,29.80,North,359,0.0,0.0,80,0.00,,,0.00,Wunderground v.1.15,2013-02-27 11:26:00,
2013-02-27 06:31:00,62.3,56.0,29.80,NW,323,0.0,0.0,80,0.00,,,0.00,Wunderground v.1.15,2013-02-27 11:31:00,
2013-02-27 06:36:00,62.1,56.2,29.80,North,10,0.0,0.0,81,0.00,,,0.00,Wunderground v.1.15,2013-02-27 11:36:00,
2013-02-27 06:41:00,62.1,56.2,29.80,North,10,0.0,0.0,81,0.00,,,0.00,Wunderground v.1.15,2013-02-27 11:41:00,
2013-02-27 06:46:00,62.0,56.1,29.81,NNE,27,0.0,0.0,81,0.00,,,0.00,Wunderground v.1.15,2013-02-27 11:46:00,
2013-02-27 06:51:00,61.8,55.9,29.81,NNE,27,0.0,0.0,81,0.00,,,0.00,Wunderground v.1.15,2013-02-27 11:51:00,
2013-02-27 06:56:00,61.6,55.7,29.81,NNE,27,0.0,0.0,81,0.00,,,0.00,Wunderground v.1.15,2013-02-27 11:56:00,
2013-02-27 07:01:00,61.5,55.6,29.81,NW,322,0.0,0.0,81,0.00,,,0.00,Wunderground v.1.15,2013-02-27 12:01:00,
2013-02-27 07:06:00,61.3,55.4,29.81,North,0,0.0,0.0,81,0.00,,,0.00,Wunderground v.1.15,2013-02-27 12:06:00,
2013-02-27 07:11:00,61.2,55.3,29.81,North,0,0.0,0.0,81,0.00,,,0.00,Wunderground v.1.15,2013-02-27 12:11:00,
2013-02-27 07:16:00,61.0,55.1,29.81,North,0,0.0,0.0,81,0.00,,,0.00,Wunderground v.1.15,2013-02-27 12:16:00,
2013-02-27 07:21:00,61.0,55.5,29.81,North,0,0.0,0.0,82,0.00,,,0.00,Wunderground v.1.15,2013-02-27 12:21:00,
2013-02-27 07:26:00,61.0,55.5,29.81,North,0,0.0,0.0,82,0.00,,,0.00,Wunderground v.1.15,2013-02-27 12:26:00,
2013-02-27 07:32:00,61.0,55.5,29.82,North,0,0.0,0.0,82,0.00,,,0.00,Wunderground v.1.15,2013-02-27 12:32:00,
2013-02-27 07:37:00,61.2,55.7,29.82,NNE,17,0.0,0.0,82,0.00,,,0.00,Wunderground v.1.15,2013-02-27 12:37:00,
2013-02-27 07:42:00,61.2,56.0,29.82,North,3,0.0,5.0,83,0.00,,,0.00,Wunderground v.1.15,2013-02-27 12:42:00,
2013-02-27 07:47:00,61.5,56.3,29.83,NW,320,0.0,8.0,83,0.00,,,0.00,Wunderground v.1.15,2013-02-27 12:47:00,
2013-02-27 07:52:00,61.6,56.0,29.83,NW,316,0.0,1.0,82,0.00,,,0.00,Wunderground v.1.15,2013-02-27 12:52:00,
2013-02-27 07:57:00,61.8,56.2,29.83,NNW,337,0.0,1.0,82,0.00,,,0.00,Wunderground v.1.15,2013-02-27 12:57:00,
2013-02-27 08:02:00,62.1,56.5,29.83,North,0,0.0,4.0,82,0.00,,,0.00,Wunderground v.1.15,2013-02-27 13:02:00,
2013-02-27 08:07:00,62.3,56.7,29.83,NNE,16,0.0,4.0,82,0.00,,,0.00,Wunderground v.1.15,2013-02-27 13:07:00,
2013-02-27 08:12:00,62.6,57.0,29.83,North,359,0.0,0.0,82,0.00,,,0.00,Wunderground v.1.15,2013-02-27 13:12:00,
2013-02-27 08:17:00,62.7,56.8,29.84,NW,312,0.0,6.0,81,0.00,,,0.00,Wunderground v.1.15,2013-02-27 13:17:00,
2013-02-27 08:22:00,62.9,57.0,29.84,North,0,0.0,5.0,81,0.00,,,0.00,Wunderground v.1.15,2013-02-27 13:22:00,
2013-02-27 08:27:00,63.1,56.8,29.84,North,354,0.0,6.0,80,0.00,,,0.00,Wunderground v.1.15,2013-02-27 13:27:00,
2013-02-27 08:32:00,63.2,56.9,29.85,North,359,1.0,6.0,80,0.00,,,0.00,Wunderground v.1.15,2013-02-27 13:32:00,
2013-02-27 08:37:00,63.4,57.1,29.85,NNW,343,0.0,8.0,80,0.00,,,0.00,Wunderground v.1.15,2013-02-27 13:37:00,
2013-02-27 08:42:00,63.5,57.2,29.85,NNW,346,0.0,8.0,80,0.00,,,0.00,Wunderground v.1.15,2013-02-27 13:42:00,
2013-02-27 08:47:00,63.7,57.4,29.85,NW,312,0.0,8.0,80,0.00,,,0.00,Wunderground v.1.15,2013-02-27 13:47:00,
2013-02-27 08:52:00,63.9,57.3,29.85,NW,313,0.0,8.0,79,0.00,,,0.00,Wunderground v.1.15,2013-02-27 13:52:00,
2013-02-27 08:57:00,64.0,57.4,29.85,NNW,336,2.0,8.0,79,0.00,,,0.00,Wunderground v.1.15,2013-02-27 13:57:00,
2013-02-27 09:02:00,64.0,57.4,29.86,NNW,346,0.0,6.0,79,0.00,,,0.00,Wunderground v.1.15,2013-02-27 14:02:00,
2013-02-27 09:07:00,64.2,57.2,29.86,NNW,328,1.0,6.0,78,0.00,,,0.00,Wunderground v.1.15,2013-02-27 14:07:00,
2013-02-27 09:12:00,64.3,57.3,29.86,NNW,344,0.0,7.0,78,0.00,,,0.00,Wunderground v.1.15,2013-02-27 14:12:00,
2013-02-27 09:17:00,64.3,57.3,29.87,NNW,343,4.0,7.0,78,0.00,,,0.00,Wunderground v.1.15,2013-02-27 14:17:00,
2013-02-27 09:22:00,64.5,57.5,29.87,West,277,0.0,8.0,78,0.00,,,0.00,Wunderground v.1.15,2013-02-27 14:22:00,
2013-02-27 09:27:00,64.7,57.3,29.87,NNW,339,0.0,8.0,77,0.00,,,0.00,Wunderground v.1.15,2013-02-27 14:27:00,
2013-02-27 09:32:00,64.8,57.4,29.88,SSE,160,0.0,10.0,77,0.00,,,0.00,Wunderground v.1.15,2013-02-27 14:32:00,
2013-02-27 09:37:00,65.0,57.6,29.88,WNW,298,0.0,10.0,77,0.00,,,0.00,Wunderground v.1.15,2013-02-27 14:37:00,
2013-02-27 09:42:00,65.3,57.5,29.88,NNW,347,0.0,5.0,76,0.00,,,0.00,Wunderground v.1.15,2013-02-27 14:42:00,
2013-02-27 09:47:00,65.5,57.7,29.87,NNW,329,7.0,7.0,76,0.00,,,0.00,Wunderground v.1.15,2013-02-27 14:47:00,
2013-02-27 09:52:00,65.5,57.4,29.87,North,354,0.0,5.0,75,0.00,,,0.00,Wunderground v.1.15,2013-02-27 14:52:00,
2013-02-27 09:57:00,65.6,57.5,29.87,NNE,20,0.0,8.0,75,0.00,,,0.00,Wunderground v.1.15,2013-02-27 14:57:00,
2013-02-27 10:02:00,65.8,57.7,29.88,West,272,0.0,1.0,75,0.00,,,0.00,Wunderground v.1.15,2013-02-27 15:02:00,
2013-02-27 10:07:00,66.1,57.6,29.88,WNW,298,0.0,6.0,74,0.00,,,0.00,Wunderground v.1.15,2013-02-27 15:07:00,
2013-02-27 10:12:00,66.3,57.4,29.88,North,0,3.0,6.0,73,0.00,,,0.00,Wunderground v.1.15,2013-02-27 15:12:00,
2013-02-27 10:17:00,66.6,57.7,29.89,North,0,7.0,8.0,73,0.00,,,0.00,Wunderground v.1.15,2013-02-27 15:17:00,
2013-02-27 10:23:00,66.9,57.6,29.89,NW,304,0.0,6.0,72,0.00,,,0.00,Wunderground v.1.15,2013-02-27 15:23:00,
2013-02-27 10:27:00,67.4,58.1,29.89,North,0,1.0,11.0,72,0.00,,,0.00,Wunderground v.1.15,2013-02-27 15:27:00,
2013-02-27 10:32:00,67.6,57.9,29.89,NW,323,0.0,6.0,71,0.00,,,0.00,Wunderground v.1.15,2013-02-27 15:32:00,
2013-02-27 10:37:00,67.8,58.1,29.89,NNW,343,5.0,8.0,71,0.00,,,0.00,Wunderground v.1.15,2013-02-27 15:37:00,
2013-02-27 10:42:00,68.1,57.9,29.89,West,281,0.0,4.0,70,0.00,,,0.00,Wunderground v.1.15,2013-02-27 15:42:00,
2013-02-27 10:47:00,68.4,58.2,29.88,WNW,295,0.0,4.0,70,0.00,,,0.00,Wunderground v.1.15,2013-02-27 15:47:00,
2013-02-27 10:52:00,68.8,58.6,29.88,North,0,0.0,3.0,70,0.00,,,0.00,Wunderground v.1.15,2013-02-27 15:52:00,
2013-02-27 10:57:00,69.1,58.5,29.88,WNW,282,0.0,3.0,69,0.00,,,0.00,Wunderground v.1.15,2013-02-27 15:57:00,
2013-02-27 11:02:00,69.3,58.3,29.89,NNW,344,0.0,12.0,68,0.00,,,0.00,Wunderground v.1.15,2013-02-27 16:02:00,
2013-02-27 11:07:00,69.1,58.1,29.89,NNW,339,1.0,12.0,68,0.00,,,0.00,Wunderground v.1.15,2013-02-27 16:07:00,
2013-02-27 11:12:00,69.1,58.1,29.89,North,3,9.0,10.0,68,0.00,,,0.00,Wunderground v.1.15,2013-02-27 16:12:00,
2013-02-27 11:17:00,69.1,57.7,29.89,North,0,0.0,10.0,67,0.00,,,0.00,Wunderground v.1.15,2013-02-27 16:17:00,
2013-02-27 11:22:00,68.9,57.9,29.89,NNW,333,0.0,3.0,68,0.00,,,0.00,Wunderground v.1.15,2013-02-27 16:22:00,
2013-02-27 11:27:00,69.1,58.1,29.89,NNW,342,0.0,8.0,68,0.00,,,0.00,Wunderground v.1.15,2013-02-27 16:27:00,
2013-02-27 11:32:00,69.4,58.0,29.88,NNW,337,0.0,7.0,67,0.00,,,0.00,Wunderground v.1.15,2013-02-27 16:32:00,
2013-02-27 11:38:00,69.8,58.3,29.88,NW,312,0.0,11.0,67,0.00,,,0.00,Wunderground v.1.15,2013-02-27 16:38:00,
2013-02-27 11:43:00,69.9,58.0,29.88,North,357,3.0,10.0,66,0.00,,,0.00,Wunderground v.1.15,2013-02-27 16:43:00,
2013-02-27 11:47:00,70.4,58.5,29.87,North,11,0.0,10.0,66,0.00,,,0.00,Wunderground v.1.15,2013-02-27 16:47:00,
2013-02-27 11:52:00,70.9,58.5,29.87,NW,318,4.0,8.0,65,0.00,,,0.00,Wunderground v.1.15,2013-02-27 16:52:00,
2013-02-27 11:58:00,71.1,58.7,29.87,NNW,330,0.0,12.0,65,0.00,,,0.00,Wunderground v.1.15,2013-02-27 16:58:00,
2013-02-27 12:02:00,71.3,58.5,29.87,NW,304,3.0,6.0,64,0.00,,,0.00,Wunderground v.1.15,2013-02-27 17:02:00,
2013-02-27 12:07:00,71.6,58.8,29.87,NW,318,0.0,6.0,64,0.00,,,0.00,Wunderground v.1.15,2013-02-27 17:07:00,
2013-02-27 12:13:00,71.8,58.5,29.87,NNE,14,0.0,7.0,63,0.00,,,0.00,Wunderground v.1.15,2013-02-27 17:13:00,
2013-02-27 12:18:00,72.0,58.7,29.87,NNW,340,1.0,12.0,63,0.00,,,0.00,Wunderground v.1.15,2013-02-27 17:18:00,
2013-02-27 12:23:00,72.1,58.4,29.87,WSW,258,5.0,7.0,62,0.00,,,0.00,Wunderground v.1.15,2013-02-27 17:23:00,
2013-02-27 12:28:00,72.3,58.5,29.87,WSW,239,0.0,7.0,62,0.00,,,0.00,Wunderground v.1.15,2013-02-27 17:28:00,
2013-02-27 12:33:00,72.5,58.7,29.87,WNW,287,5.0,7.0,62,0.00,,,0.00,Wunderground v.1.15,2013-02-27 17:33:00,
2013-02-27 12:38:00,72.5,58.3,29.87,West,270,2.0,7.0,61,0.00,,,0.00,Wunderground v.1.15,2013-02-27 17:38:00,
2013-02-27 12:43:00,72.3,57.6,29.87,WNW,299,0.0,11.0,60,0.00,,,0.00,Wunderground v.1.15,2013-02-27 17:43:00,
2013-02-27 12:48:00,72.3,58.1,29.87,NNW,336,0.0,11.0,61,0.00,,,0.00,Wunderground v.1.15,2013-02-27 17:48:00,
2013-02-27 12:53:00,72.5,57.8,29.87,North,353,0.0,8.0,60,0.00,,,0.00,Wunderground v.1.15,2013-02-27 17:53:00,
2013-02-27 12:58:00,72.5,57.4,29.87,NNW,337,2.0,8.0,59,0.00,,,0.00,Wunderground v.1.15,2013-02-27 17:58:00,
2013-02-27 13:03:00,72.3,57.2,29.86,WNW,284,0.0,8.0,59,0.00,,,0.00,Wunderground v.1.15,2013-02-27 18:03:00,
2013-02-27 13:08:00,72.3,57.2,29.86,WNW,292,0.0,8.0,59,0.00,,,0.00,Wunderground v.1.15,2013-02-27 18:08:00,
2013-02-27 13:13:00,72.7,57.5,29.86,NNW,339,0.0,5.0,59,0.00,,,0.00,Wunderground v.1.15,2013-02-27 18:13:00,
2013-02-27 13:18:00,73.0,57.8,29.85,NW,318,0.0,5.0,59,0.00,,,0.00,Wunderground v.1.15,2013-02-27 18:18:00,
2013-02-27 13:23:00,73.2,58.0,29.85,WNW,295,0.0,0.0,59,0.00,,,0.00,Wunderground v.1.15,2013-02-27 18:23:00,
2013-02-27 13:28:00,73.2,57.5,29.85,West,260,0.0,12.0,58,0.00,,,0.00,Wunderground v.1.15,2013-02-27 18:28:00,
2013-02-27 13:33:00,72.8,57.2,29.84,WSW,253,4.0,4.0,58,0.00,,,0.00,Wunderground v.1.15,2013-02-27 18:33:00,
2013-02-27 13:38:00,72.8,57.2,29.84,NW,323,0.0,4.0,58,0.00,,,0.00,Wunderground v.1.15,2013-02-27 18:38:00,
2013-02-27 13:43:00,72.8,57.2,29.84,NW,322,0.0,5.0,58,0.00,,,0.00,Wunderground v.1.15,2013-02-27 18:43:00,
2013-02-27 13:48:00,72.7,56.6,29.83,West,271,0.0,5.0,57,0.00,,,0.00,Wunderground v.1.15,2013-02-27 18:48:00,
2013-02-27 13:53:00,72.7,56.6,29.83,SW,224,0.0,0.0,57,0.00,,,0.00,Wunderground v.1.15,2013-02-27 18:53:00,
2013-02-27 13:58:00,72.8,56.7,29.83,NNW,332,0.0,1.0,57,0.00,,,0.00,Wunderground v.1.15,2013-02-27 18:58:00,
2013-02-27 14:03:00,72.8,56.2,29.83,North,0,0.0,1.0,56,0.00,,,0.00,Wunderground v.1.15,2013-02-27 19:03:00,
2013-02-27 14:08:00,73.0,56.4,29.83,North,0,0.0,3.0,56,0.00,,,0.00,Wunderground v.1.15,2013-02-27 19:08:00,
2013-02-27 14:13:00,73.0,56.4,29.83,West,270,0.0,3.0,56,0.00,,,0.00,Wunderground v.1.15,2013-02-27 19:13:00,
2013-02-27 14:18:00,73.2,56.6,29.83,NNW,347,0.0,8.0,56,0.00,,,0.00,Wunderground v.1.15,2013-02-27 19:18:00,
2013-02-27 14:23:00,73.2,56.6,29.83,North,8,0.0,3.0,56,0.00,,,0.00,Wunderground v.1.15,2013-02-27 19:23:00,
2013-02-27 14:28:00,73.0,55.9,29.83,North,0,0.0,6.0,55,0.00,,,0.00,Wunderground v.1.15,2013-02-27 19:28:00,
2013-02-27 14:33:00,72.3,55.2,29.83,North,0,2.0,5.0,55,0.00,,,0.00,Wunderground v.1.15,2013-02-27 19:33:00,
2013-02-27 14:38:00,71.8,55.3,29.83,SW,230,0.0,5.0,56,0.00,,,0.00,Wunderground v.1.15,2013-02-27 19:38:00,
2013-02-27 14:43:00,71.5,55.0,29.83,WNW,287,0.0,2.0,56,0.00,,,0.00,Wunderground v.1.15,2013-02-27 19:43:00,
2013-02-27 14:48:00,71.1,54.6,29.83,West,281,0.0,2.0,56,0.00,,,0.00,Wunderground v.1.15,2013-02-27 19:48:00,
2013-02-27 14:53:00,70.8,54.3,29.83,NNE,14,0.0,5.0,56,0.00,,,0.00,Wunderground v.1.15,2013-02-27 19:53:00,
2013-02-27 14:58:00,70.3,53.9,29.83,WNW,285,0.0,6.0,56,0.00,,,0.00,Wunderground v.1.15,2013-02-27 19:58:00,
2013-02-27 15:03:00,70.1,53.7,29.83,NNW,342,3.0,8.0,56,0.00,,,0.00,Wunderground v.1.15,2013-02-27 20:03:00,
2013-02-27 15:08:00,69.8,53.9,29.83,NW,311,4.0,8.0,57,0.00,,,0.00,Wunderground v.1.15,2013-02-27 20:08:00,
2013-02-27 15:13:00,69.6,53.7,29.83,WNW,284,0.0,6.0,57,0.00,,,0.00,Wunderground v.1.15,2013-02-27 20:13:00,
2013-02-27 15:18:00,69.6,53.2,29.83,North,0,5.0,7.0,56,0.00,,,0.00,Wunderground v.1.15,2013-02-27 20:18:00,
2013-02-27 15:23:00,69.4,53.0,29.83,NNE,32,0.0,6.0,56,0.00,,,0.00,Wunderground v.1.15,2013-02-27 20:23:00,
2013-02-27 15:28:00,69.4,53.0,29.83,NW,304,0.0,6.0,56,0.00,,,0.00,Wunderground v.1.15,2013-02-27 20:28:00,
2013-02-27 15:33:00,69.4,53.0,29.83,SW,232,2.0,8.0,56,0.00,,,0.00,Wunderground v.1.15,2013-02-27 20:33:00,
2013-02-27 15:38:00,69.3,52.9,29.83,WNW,301,0.0,8.0,56,0.00,,,0.00,Wunderground v.1.15,2013-02-27 20:38:00,
2013-02-27 15:43:00,68.9,53.0,29.83,North,0,0.0,4.0,57,0.00,,,0.00,Wunderground v.1.15,2013-02-27 20:43:00,
2013-02-27 15:48:00,68.6,52.8,29.83,NW,318,0.0,10.0,57,0.00,,,0.00,Wunderground v.1.15,2013-02-27 20:48:00,
2013-02-27 15:53:00,68.4,52.6,29.83,NNW,336,0.0,5.0,57,0.00,,,0.00,Wunderground v.1.15,2013-02-27 20:53:00,
2013-02-27 15:58:00,68.4,52.6,29.83,North,354,0.0,5.0,57,0.00,,,0.00,Wunderground v.1.15,2013-02-27 20:58:00,
2013-02-27 16:03:00,68.4,52.6,29.83,North,0,0.0,0.0,57,0.00,,,0.00,Wunderground v.1.15,2013-02-27 21:03:00,
2013-02-27 16:08:00,68.3,52.5,29.83,North,0,0.0,6.0,57,0.00,,,0.00,Wunderground v.1.15,2013-02-27 21:08:00,
2013-02-27 16:13:00,68.1,52.8,29.83,NNW,329,0.0,3.0,58,0.00,,,0.00,Wunderground v.1.15,2013-02-27 21:13:00,
2013-02-27 16:18:00,67.9,52.6,29.84,WNW,295,0.0,7.0,58,0.00,,,0.00,Wunderground v.1.15,2013-02-27 21:18:00,
2013-02-27 16:23:00,67.8,52.0,29.84,West,265,3.0,7.0,57,0.00,,,0.00,Wunderground v.1.15,2013-02-27 21:23:00,
2013-02-27 16:28:00,67.4,51.6,29.84,NW,305,0.0,7.0,57,0.00,,,0.00,Wunderground v.1.15,2013-02-27 21:28:00,
2013-02-27 16:33:00,66.9,51.6,29.84,WSW,253,0.0,3.0,58,0.00,,,0.00,Wunderground v.1.15,2013-02-27 21:33:00,
2013-02-27 16:38:00,66.8,52.0,29.84,North,3,0.0,3.0,59,0.00,,,0.00,Wunderground v.1.15,2013-02-27 21:38:00,
2013-02-27 16:43:00,66.6,51.4,29.84,North,6,0.0,0.0,58,0.00,,,0.00,Wunderground v.1.15,2013-02-27 21:43:00,
2013-02-27 16:48:00,66.4,51.6,29.84,NNW,336,0.0,1.0,59,0.00,,,0.00,Wunderground v.1.15,2013-02-27 21:48:00,
2013-02-27 16:53:00,66.3,51.5,29.84,North,0,0.0,3.0,59,0.00,,,0.00,Wunderground v.1.15,2013-02-27 21:53:00,
2013-02-27 16:58:00,66.3,51.5,29.84,NNW,343,0.0,3.0,59,0.00,,,0.00,Wunderground v.1.15,2013-02-27 21:58:00,
2013-02-27 17:03:00,66.1,51.4,29.84,WNW,287,0.0,2.0,59,0.00,,,0.00,Wunderground v.1.15,2013-02-27 22:03:00,
2013-02-27 17:08:00,66.0,51.7,29.84,North,0,0.0,2.0,60,0.00,,,0.00,Wunderground v.1.15,2013-02-27 22:08:00,
2013-02-27 17:13:00,65.8,51.5,29.84,NNW,328,0.0,5.0,60,0.00,,,0.00,Wunderground v.1.15,2013-02-27 22:13:00,
2013-02-27 17:18:00,65.6,51.3,29.85,NW,312,0.0,5.0,60,0.00,,,0.00,Wunderground v.1.15,2013-02-27 22:18:00,
2013-02-27 17:23:00,65.5,51.7,29.85,NW,305,5.0,6.0,61,0.00,,,0.00,Wunderground v.1.15,2013-02-27 22:23:00,
2013-02-27 17:28:00,65.3,51.5,29.85,NW,322,0.0,6.0,61,0.00,,,0.00,Wunderground v.1.15,2013-02-27 22:28:00,
2013-02-27 17:33:00,65.0,51.2,29.84,North,353,6.0,6.0,61,0.00,,,0.00,Wunderground v.1.15,2013-02-27 22:33:00,
2013-02-27 17:38:00,64.7,51.4,29.84,North,0,2.0,6.0,62,0.00,,,0.00,Wunderground v.1.15,2013-02-27 22:38:00,
2013-02-27 17:43:00,64.3,51.0,29.84,North,0,0.0,8.0,62,0.00,,,0.00,Wunderground v.1.15,2013-02-27 22:43:00,
2013-02-27 17:48:00,64.0,51.1,29.83,North,7,0.0,8.0,63,0.00,,,0.00,Wunderground v.1.15,2013-02-27 22:48:00,
2013-02-27 17:53:00,63.9,51.1,29.83,NNE,21,0.0,0.0,63,0.00,,,0.00,Wunderground v.1.15,2013-02-27 22:53:00,
2013-02-27 17:58:00,63.5,50.7,29.83,NNW,333,0.0,8.0,63,0.00,,,0.00,Wunderground v.1.15,2013-02-27 22:58:00,
2013-02-27 18:03:00,63.2,50.8,29.84,North,352,0.0,5.0,64,0.00,,,0.00,Wunderground v.1.15,2013-02-27 23:03:00,
2013-02-27 18:08:00,63.1,50.7,29.84,NW,309,0.0,6.0,64,0.00,,,0.00,Wunderground v.1.15,2013-02-27 23:08:00,
2013-02-27 18:13:00,62.9,50.5,29.84,North,359,1.0,3.0,64,0.00,,,0.00,Wunderground v.1.15,2013-02-27 23:13:00,
2013-02-27 18:18:00,62.6,50.2,29.85,North,0,0.0,3.0,64,0.00,,,0.00,Wunderground v.1.15,2013-02-27 23:18:00,
2013-02-27 18:23:00,62.4,50.5,29.85,NNW,344,0.0,2.0,65,0.00,,,0.00,Wunderground v.1.15,2013-02-27 23:23:00,
2013-02-27 18:28:00,62.1,50.2,29.85,NW,323,0.0,2.0,65,0.00,,,0.00,Wunderground v.1.15,2013-02-27 23:28:00,
2013-02-27 18:33:00,62.0,50.5,29.85,North,356,0.0,2.0,66,0.00,,,0.00,Wunderground v.1.15,2013-02-27 23:33:00,
2013-02-27 18:38:00,61.8,50.3,29.85,North,356,0.0,2.0,66,0.00,,,0.00,Wunderground v.1.15,2013-02-27 23:38:00,
2013-02-27 18:43:00,61.8,50.3,29.85,WNW,299,0.0,0.0,66,0.00,,,0.00,Wunderground v.1.15,2013-02-27 23:43:00,
2013-02-27 18:48:00,61.5,50.4,29.85,North,11,0.0,2.0,67,0.00,,,0.00,Wunderground v.1.15,2013-02-27 23:48:00,
2013-02-27 18:53:00,61.3,50.2,29.85,NNW,340,0.0,0.0,67,0.00,,,0.00,Wunderground v.1.15,2013-02-27 23:53:00,
2013-02-27 18:58:00,61.2,50.2,29.85,NNW,340,0.0,0.0,67,0.00,,,0.00,Wunderground v.1.15,2013-02-27 23:58:00,
2013-02-27 19:03:00,61.0,50.0,29.86,NNW,340,0.0,0.0,67,0.00,,,0.00,Wunderground v.1.15,2013-02-28 00:03:00,
2013-02-27 19:08:00,60.9,49.9,29.86,NNW,340,0.0,0.0,67,0.00,,,0.00,Wunderground v.1.15,2013-02-28 00:08:00,
2013-02-27 19:13:00,60.5,49.9,29.86,NNW,340,0.0,0.0,68,0.00,,,0.00,Wunderground v.1.15,2013-02-28 00:13:00,
2013-02-27 19:18:00,60.4,49.8,29.86,NNW,340,0.0,0.0,68,0.00,,,0.00,Wunderground v.1.15,2013-02-28 00:18:00,
2013-02-27 19:23:00,60.4,49.8,29.86,North,353,0.0,0.0,68,0.00,,,0.00,Wunderground v.1.15,2013-02-28 00:23:00,
2013-02-27 19:28:00,60.2,50.0,29.86,North,353,0.0,0.0,69,0.00,,,0.00,Wunderground v.1.15,2013-02-28 00:28:00,
2013-02-27 19:33:00,60.1,49.9,29.86,North,353,0.0,0.0,69,0.00,,,0.00,Wunderground v.1.15,2013-02-28 00:33:00,
2013-02-27 19:38:00,59.9,49.7,29.86,North,353,0.0,0.0,69,0.00,,,0.00,Wunderground v.1.15,2013-02-28 00:38:00,
2013-02-27 19:43:00,59.8,49.6,29.86,North,353,0.0,0.0,69,0.00,,,0.00,Wunderground v.1.15,2013-02-28 00:43:00,
2013-02-27 19:48:00,59.6,49.4,29.86,North,354,0.0,0.0,69,0.00,,,0.00,Wunderground v.1.15,2013-02-28 00:48:00,
2013-02-27 19:53:00,59.5,49.3,29.86,NW,325,0.0,0.0,69,0.00,,,0.00,Wunderground v.1.15,2013-02-28 00:53:00,
2013-02-27 19:58:00,59.5,49.7,29.86,North,0,1.0,1.0,70,0.00,,,0.00,Wunderground v.1.15,2013-02-28 00:58:00,
2013-02-27 20:03:00,59.3,49.5,29.86,NW,326,0.0,1.0,70,0.00,,,0.00,Wunderground v.1.15,2013-02-28 01:03:00,
2013-02-27 20:08:00,59.3,49.5,29.86,North,354,0.0,1.0,70,0.00,,,0.00,Wunderground v.1.15,2013-02-28 01:08:00,
2013-02-27 20:13:00,59.2,49.8,29.86,NNW,346,0.0,0.0,71,0.00,,,0.00,Wunderground v.1.15,2013-02-28 01:13:00,
2013-02-27 20:18:00,59.2,49.4,29.87,North,349,0.0,1.0,70,0.00,,,0.00,Wunderground v.1.15,2013-02-28 01:18:00,
2013-02-27 20:23:00,59.0,49.6,29.87,NW,325,0.0,3.0,71,0.00,,,0.00,Wunderground v.1.15,2013-02-28 01:23:00,
2013-02-27 20:28:00,59.0,49.6,29.87,NNW,346,0.0,3.0,71,0.00,,,0.00,Wunderground v.1.15,2013-02-28 01:28:00,
2013-02-27 20:33:00,59.0,49.6,29.87,North,349,1.0,1.0,71,0.00,,,0.00,Wunderground v.1.15,2013-02-28 01:33:00,
2013-02-27 20:38:00,59.0,49.6,29.87,NNW,329,0.0,1.0,71,0.00,,,0.00,Wunderground v.1.15,2013-02-28 01:38:00,
2013-02-27 20:43:00,58.9,49.5,29.87,WSW,250,0.0,1.0,71,0.00,,,0.00,Wunderground v.1.15,2013-02-28 01:43:00,
2013-02-27 20:48:00,58.9,49.5,29.86,WSW,254,0.0,1.0,71,0.00,,,0.00,Wunderground v.1.15,2013-02-28 01:48:00,
2013-02-27 20:53:00,58.9,49.9,29.86,North,1,0.0,1.0,72,0.00,,,0.00,Wunderground v.1.15,2013-02-28 01:53:00,
2013-02-27 20:58:00,58.9,49.9,29.86,NNW,333,0.0,1.0,72,0.00,,,0.00,Wunderground v.1.15,2013-02-28 01:58:00,
2013-02-27 21:03:00,58.9,49.9,29.87,North,353,0.0,6.0,72,0.00,,,0.00,Wunderground v.1.15,2013-02-28 02:03:00,
2013-02-27 21:08:00,58.9,49.9,29.87,NNW,340,0.0,6.0,72,0.00,,,0.00,Wunderground v.1.15,2013-02-28 02:08:00,
2013-02-27 21:13:00,58.9,49.9,29.87,NNW,342,0.0,5.0,72,0.00,,,0.00,Wunderground v.1.15,2013-02-28 02:13:00,
2013-02-27 21:18:00,58.9,49.9,29.87,WNW,292,0.0,5.0,72,0.00,,,0.00,Wunderground v.1.15,2013-02-28 02:18:00,
2013-02-27 21:23:00,58.7,49.7,29.87,WNW,294,0.0,0.0,72,0.00,,,0.00,Wunderground v.1.15,2013-02-28 02:23:00,
2013-02-27 21:28:00,58.7,49.7,29.87,West,277,0.0,1.0,72,0.00,,,0.00,Wunderground v.1.15,2013-02-28 02:28:00,
2013-02-27 21:33:00,58.7,49.7,29.87,WNW,295,0.0,0.0,72,0.00,,,0.00,Wunderground v.1.15,2013-02-28 02:33:00,
2013-02-27 21:38:00,58.7,50.1,29.87,WNW,282,1.0,1.0,73,0.00,,,0.00,Wunderground v.1.15,2013-02-28 02:38:00,
2013-02-27 21:43:00,58.9,50.3,29.87,NE,47,0.0,0.0,73,0.00,,,0.00,Wunderground v.1.15,2013-02-28 02:43:00,
2013-02-27 21:48:00,58.9,50.3,29.87,North,354,0.0,5.0,73,0.00,,,0.00,Wunderground v.1.15,2013-02-28 02:48:00,
2013-02-27 21:53:00,58.9,50.3,29.87,West,267,0.0,6.0,73,0.00,,,0.00,Wunderground v.1.15,2013-02-28 02:53:00,
2013-02-27 21:58:00,58.9,50.3,29.87,NNW,333,0.0,6.0,73,0.00,,,0.00,Wunderground v.1.15,2013-02-28 02:58:00,
2013-02-27 22:03:00,58.9,50.3,29.87,NW,323,0.0,4.0,73,0.00,,,0.00,Wunderground v.1.15,2013-02-28 03:03:00,
2013-02-27 22:08:00,58.9,50.3,29.87,WNW,285,0.0,5.0,73,0.00,,,0.00,Wunderground v.1.15,2013-02-28 03:08:00,
2013-02-27 22:13:00,58.9,50.3,29.87,West,260,0.0,5.0,73,0.00,,,0.00,Wunderground v.1.15,2013-02-28 03:13:00,
2013-02-27 22:18:00,58.9,50.6,29.88,West,281,0.0,5.0,74,0.00,,,0.00,Wunderground v.1.15,2013-02-28 03:18:00,
2013-02-27 22:23:00,58.9,50.6,29.88,WNW,288,0.0,2.0,74,0.00,,,0.00,Wunderground v.1.15,2013-02-28 03:23:00,
2013-02-27 22:28:00,58.9,50.6,29.88,SSW,210,0.0,4.0,74,0.00,,,0.00,Wunderground v.1.15,2013-02-28 03:28:00,
2013-02-27 22:33:00,58.9,50.6,29.88,WNW,292,0.0,0.0,74,0.00,,,0.00,Wunderground v.1.15,2013-02-28 03:33:00,
2013-02-27 22:38:00,58.7,50.4,29.88,WNW,299,2.0,4.0,74,0.00,,,0.00,Wunderground v.1.15,2013-02-28 03:38:00,
2013-02-27 22:43:00,58.7,50.4,29.88,NW,326,0.0,1.0,74,0.00,,,0.00,Wunderground v.1.15,2013-02-28 03:43:00,
2013-02-27 22:48:00,58.7,50.4,29.87,NW,318,0.0,4.0,74,0.00,,,0.00,Wunderground v.1.15,2013-02-28 03:48:00,
2013-02-27 22:53:00,58.7,50.4,29.87,NW,311,0.0,1.0,74,0.00,,,0.00,Wunderground v.1.15,2013-02-28 03:53:00,
2013-02-27 22:58:00,58.7,50.4,29.87,West,264,0.0,2.0,74,0.00,,,0.00,Wunderground v.1.15,2013-02-28 03:58:00,
2013-02-27 23:03:00,58.7,50.4,29.87,NW,311,1.0,7.0,74,0.00,,,0.00,Wunderground v.1.15,2013-02-28 04:03:00,
2013-02-27 23:08:00,58.7,50.4,29.87,NW,306,0.0,7.0,74,0.00,,,0.00,Wunderground v.1.15,2013-02-28 04:08:00,
2013-02-27 23:13:00,58.7,50.4,29.87,NE,34,0.0,6.0,74,0.00,,,0.00,Wunderground v.1.15,2013-02-28 04:13:00,
2013-02-27 23:18:00,58.7,50.4,29.87,NNW,343,0.0,6.0,74,0.00,,,0.00,Wunderground v.1.15,2013-02-28 04:18:00,
2013-02-27 23:23:00,58.7,50.4,29.87,NNE,24,0.0,5.0,74,0.00,,,0.00,Wunderground v.1.15,2013-02-28 04:23:00,
2013-02-27 23:28:00,58.7,50.4,29.87,West,268,0.0,5.0,74,0.00,,,0.00,Wunderground v.1.15,2013-02-28 04:28:00,
2013-02-27 23:33:00,58.9,50.6,29.87,WNW,296,0.0,0.0,74,0.00,,,0.00,Wunderground v.1.15,2013-02-28 04:33:00,
2013-02-27 23:38:00,58.9,50.6,29.87,NW,306,2.0,6.0,74,0.00,,,0.00,Wunderground v.1.15,2013-02-28 04:38:00,
2013-02-27 23:43:00,58.9,50.6,29.87,North,353,0.0,5.0,74,0.00,,,0.00,Wunderground v.1.15,2013-02-28 04:43:00,
2013-02-27 23:48:00,58.9,50.6,29.87,NNW,340,0.0,5.0,74,0.00,,,0.00,Wunderground v.1.15,2013-02-28 04:48:00,
2013-02-27 23:53:00,59.0,50.7,29.87,NNW,330,3.0,7.0,74,0.00,,,0.00,Wunderground v.1.15,2013-02-28 04:53:00,
2013-02-27 23:58:00,59.0,50.7,29.87,NW,312,6.0,8.0,74,0.00,,,0.00,Wunderground v.1.15,2013-02-28 04:58:00,